createdAt,value
2023-04-14T00:02:13.393Z,38.97
2023-04-14T00:05:00.305Z,38.93
2023-04-14T00:07:56.478Z,39.14
2023-04-14T00:10:43.003Z,38.94
2023-04-14T00:13:29.372Z,39.20
2023-04-14T00:16:16.153Z,39.21
2023-04-14T00:19:02.988Z,39.12
2023-04-14T00:21:49.280Z,38.85
2023-04-14T00:24:43.289Z,39.09
2023-04-14T00:27:31.724Z,39.06
2023-04-14T00:30:17.965Z,39.05
2023-04-14T00:33:04.674Z,39.38
2023-04-14T00:35:50.910Z,39.24
2023-04-14T00:38:41.064Z,39.11
2023-04-14T00:41:36.231Z,39.08
2023-04-14T00:44:23.277Z,40.02
2023-04-14T00:47:09.904Z,39.38
2023-04-14T00:49:56.913Z,39.31
2023-04-14T00:52:48.230Z,39.47
2023-04-14T00:55:36.113Z,39.32
2023-04-14T00:58:22.645Z,39.35
2023-04-14T01:01:13.317Z,39.51
2023-04-14T01:04:00.309Z,39.68
2023-04-14T01:06:48.401Z,39.41
2023-04-14T01:09:34.857Z,39.73
2023-04-14T01:12:55.488Z,40.42
2023-04-14T01:15:52.107Z,39.72
2023-04-14T01:18:50.092Z,40.01
2023-04-14T01:21:44.706Z,40.56
2023-04-14T01:24:43.543Z,40.09
2023-04-14T01:27:30.685Z,40.14
2023-04-14T01:30:46.084Z,40.48
2023-04-14T01:33:34.913Z,40.21
2023-04-14T01:36:27.387Z,39.95
2023-04-14T01:39:16.624Z,40.17
2023-04-14T01:42:06.772Z,40.20
2023-04-14T01:44:57.740Z,39.87
2023-04-14T01:47:44.377Z,40.32
2023-04-14T01:50:31.811Z,40.52
2023-04-14T01:53:20.117Z,40.47
2023-04-14T01:56:08.464Z,40.32
2023-04-14T01:58:55.799Z,40.34
2023-04-14T02:01:43.209Z,40.53
2023-04-14T02:04:30.252Z,40.51
2023-04-14T02:07:17.750Z,40.63
2023-04-14T02:10:06.143Z,40.90
2023-04-14T02:12:55.763Z,40.71
2023-04-14T02:15:43.086Z,40.72
2023-04-14T02:18:31.665Z,40.65
2023-04-14T02:21:19.001Z,40.60
2023-04-14T02:24:05.464Z,41.02
2023-04-14T02:27:19.213Z,40.96
2023-04-14T02:30:14.504Z,40.75
2023-04-14T02:33:07.331Z,41.12
2023-04-14T02:36:04.725Z,41.01
2023-04-14T02:39:01.127Z,41.17
2023-04-14T02:41:49.209Z,41.22
2023-04-14T02:44:39.417Z,41.52
2023-04-14T02:47:38.918Z,41.12
2023-04-14T02:50:25.905Z,41.42
2023-04-14T02:53:26.812Z,41.61
2023-04-14T02:56:36.240Z,41.64
2023-04-14T02:59:23.599Z,41.72
2023-04-14T03:02:22.487Z,41.60
2023-04-14T03:05:18.391Z,41.82
2023-04-14T03:08:16.107Z,41.75
2023-04-14T03:11:06.824Z,41.58
2023-04-14T03:13:53.768Z,41.99
2023-04-14T03:16:40.604Z,42.20
2023-04-14T03:19:29.794Z,41.95
2023-04-14T03:22:18.637Z,42.36
2023-04-14T03:25:05.268Z,42.40
2023-04-14T03:27:52.654Z,42.01
2023-04-14T03:30:43.337Z,42.21
2023-04-14T03:33:31.181Z,42.71
2023-04-14T03:36:18.549Z,42.70
2023-04-14T03:39:06.024Z,42.43
2023-04-14T03:41:57.351Z,42.93
2023-04-14T03:44:50.048Z,42.60
2023-04-14T03:47:36.486Z,43.42
2023-04-14T03:50:23.974Z,42.76
2023-04-14T03:53:14.397Z,43.40
2023-04-14T03:56:01.447Z,43.11
2023-04-14T03:58:50.976Z,43.50
2023-04-14T04:01:37.853Z,43.69
2023-04-14T04:04:24.595Z,43.65
2023-04-14T04:07:14.410Z,44.05
2023-04-14T04:10:00.717Z,44.07
2023-04-14T04:12:48.051Z,43.80
2023-04-14T04:15:36.991Z,44.16
2023-04-14T04:18:27.316Z,43.66
2023-04-14T04:21:15.310Z,44.06
2023-04-14T04:24:05.584Z,44.08
2023-04-14T04:26:53.522Z,43.69
2023-04-14T04:29:41.117Z,43.68
2023-04-14T04:32:28.230Z,43.50
2023-04-14T04:35:15.670Z,44.05
2023-04-14T04:38:05.719Z,43.67
2023-04-14T04:40:52.475Z,43.77
2023-04-14T04:43:47.872Z,44.14
2023-04-14T04:46:46.298Z,43.79
2023-04-14T04:49:34.673Z,44.17
2023-04-14T04:52:32.122Z,44.16
2023-04-14T04:55:29.965Z,43.96
2023-04-14T04:58:19.027Z,43.91
2023-04-14T05:01:11.965Z,43.57
2023-04-14T05:04:07.012Z,43.63
2023-04-14T05:06:56.346Z,43.37
2023-04-14T05:09:42.774Z,43.84
2023-04-14T05:12:29.704Z,43.67
2023-04-14T05:15:16.157Z,43.80
2023-04-14T05:18:03.003Z,43.75
2023-04-14T05:20:52.578Z,43.69
2023-04-14T05:23:40.576Z,43.60
2023-04-14T05:26:49.008Z,43.75
2023-04-14T05:29:32.714Z,43.59
2023-04-14T05:32:19.386Z,43.64
2023-04-14T05:35:05.951Z,44.20
2023-04-14T05:37:52.082Z,43.75
2023-04-14T05:40:38.737Z,44.01
2023-04-14T05:43:24.996Z,43.97
2023-04-14T05:46:15.205Z,44.32
2023-04-14T05:49:03.404Z,44.30
2023-04-14T05:51:55.645Z,44.40
2023-04-14T05:54:46.862Z,44.30
2023-04-14T05:57:33.117Z,44.24
2023-04-14T06:00:20.063Z,44.57
2023-04-14T06:03:35.447Z,45.94
2023-04-14T06:07:19.287Z,44.99
2023-04-14T06:10:12.145Z,44.82
2023-04-14T06:12:58.473Z,45.24
2023-04-14T06:15:45.023Z,45.41
2023-04-14T06:18:30.969Z,45.64
2023-04-14T06:21:17.387Z,46.28
2023-04-14T06:24:03.407Z,46.26
2023-04-14T06:27:19.916Z,47.21
2023-04-14T06:30:07.198Z,46.56
2023-04-14T06:33:04.841Z,49.50
2023-04-14T06:42:59.785Z,48.88
2023-04-14T06:50:09.924Z,49.19
2023-04-14T06:53:09.686Z,47.00
2023-04-14T06:56:14.207Z,47.44
2023-04-14T06:59:05.646Z,47.40
2023-04-14T07:01:56.162Z,47.02
2023-04-14T07:04:52.983Z,47.49
2023-04-14T07:07:40.848Z,47.42
2023-04-14T07:10:38.590Z,47.71
2023-04-14T07:13:34.463Z,47.51
2023-04-14T07:16:27.068Z,47.70
2023-04-14T07:19:16.347Z,47.57
2023-04-14T07:22:07.963Z,47.87
2023-04-14T07:25:06.593Z,47.84
2023-04-14T07:28:06.600Z,47.60
2023-04-14T07:31:15.470Z,48.45
2023-04-14T07:34:25.893Z,48.32
2023-04-14T07:40:17.417Z,47.93
2023-04-14T07:43:04.462Z,48.59
2023-04-14T07:45:59.078Z,48.52
2023-04-14T07:48:48.363Z,48.69
2023-04-14T07:51:39.892Z,47.91
2023-04-14T07:54:37.717Z,48.09
2023-04-14T08:00:48.235Z,48.30
2023-04-14T08:03:49.490Z,48.49
2023-04-14T08:16:05.695Z,48.26
2023-04-14T08:27:46.554Z,47.67
2023-04-14T08:30:53.195Z,47.82
2023-04-14T08:34:04.052Z,48.40
2023-04-14T08:41:08.479Z,48.14
2023-04-14T08:45:02.414Z,47.89
2023-04-14T08:48:19.124Z,47.71
2023-04-14T08:51:29.236Z,48.19
2023-04-14T08:58:10.796Z,47.91
2023-04-14T09:01:13.543Z,48.32
2023-04-14T09:11:23.605Z,47.95
2023-04-14T09:14:55.731Z,48.62
2023-04-14T09:18:47.253Z,48.13
2023-04-14T09:22:10.276Z,48.28
2023-04-14T09:34:09.647Z,48.12
2023-04-14T09:40:50.797Z,48.15
2023-04-14T13:02:09.317Z,23.07
2023-04-14T13:05:07.343Z,23.02
2023-04-14T13:13:08.718Z,23.73
2023-04-14T13:16:14.586Z,23.34
2023-04-14T13:19:18.676Z,21.94
2023-04-14T13:22:32.548Z,21.57
2023-04-14T13:25:46.949Z,21.58
2023-04-14T13:28:45.125Z,21.14
2023-04-14T13:36:53.567Z,20.69
2023-04-14T13:40:40.556Z,19.17
2023-04-14T13:54:18.018Z,19.04
2023-04-14T14:25:19.655Z,20.14
2023-04-14T14:28:53.730Z,20.52
2023-04-14T14:32:41.228Z,20.34
2023-04-14T14:50:56.139Z,17.21
2023-04-14T15:07:41.244Z,17.46
2023-04-14T15:34:28.508Z,19.58
2023-04-14T15:40:51.180Z,20.49
2023-04-14T15:43:52.843Z,20.31
2023-04-14T15:47:04.326Z,20.83
2023-04-14T15:50:08.824Z,21.24
2023-04-14T15:53:00.512Z,21.21
2023-04-14T15:55:53.358Z,21.47
2023-04-14T15:58:41.869Z,21.48
2023-04-14T16:01:31.899Z,21.61
2023-04-14T16:04:20.020Z,21.53
2023-04-14T16:07:11.482Z,21.64
2023-04-14T16:10:01.115Z,21.29
2023-04-14T16:12:51.552Z,21.43
2023-04-14T16:15:44.342Z,21.60
2023-04-14T16:18:37.105Z,21.88
2023-04-14T16:21:32.909Z,22.12
2023-04-14T16:24:20.764Z,21.99
2023-04-14T16:27:19.451Z,22.09
2023-04-14T17:00:09.284Z,23.41
2023-04-14T17:02:40.460Z,23.45
2023-04-14T17:05:43.607Z,23.44
2023-04-14T17:12:59.124Z,24.20
2023-04-14T17:16:56.961Z,24.53
2023-04-14T17:24:48.453Z,24.68
2023-04-14T17:30:59.319Z,25.12
2023-04-14T17:45:58.292Z,25.33
2023-04-14T18:16:13.535Z,27.72
2023-04-14T18:19:23.800Z,27.49
2023-04-14T19:01:08.530Z,29.88
2023-04-14T19:08:15.768Z,29.63
2023-04-14T19:11:38.504Z,30.87
2023-04-14T19:16:18.067Z,34.18
2023-04-14T19:28:36.827Z,33.92
2023-04-14T19:36:32.726Z,30.32
2023-04-14T19:39:23.174Z,29.80
2023-04-14T19:53:28.934Z,30.53
2023-04-14T19:56:36.791Z,30.79
2023-04-14T19:59:36.560Z,30.08
2023-04-14T20:02:30.241Z,30.71
2023-04-14T20:15:36.334Z,33.99
2023-04-14T20:28:25.355Z,30.81
2023-04-14T21:05:03.384Z,34.24
2023-04-14T21:18:07.450Z,34.84
2023-04-14T21:44:12.782Z,35.43
2023-04-14T21:47:14.446Z,35.22
2023-04-14T21:50:16.840Z,34.92
2023-04-14T21:53:09.019Z,35.03
2023-04-14T21:56:11.070Z,35.43
2023-04-14T21:59:07.919Z,35.74
2023-04-14T22:02:01.391Z,36.40
2023-04-14T22:05:12.406Z,37.24
2023-04-14T22:11:10.566Z,37.72
2023-04-14T22:14:02.384Z,37.45
2023-04-14T22:16:55.592Z,38.06
2023-04-14T22:19:55.174Z,37.97
2023-04-14T22:22:46.799Z,37.52
2023-04-14T22:25:37.325Z,37.52
2023-04-14T22:28:24.003Z,37.87
2023-04-14T22:31:13.696Z,36.97
2023-04-14T22:34:09.582Z,37.74
2023-04-14T22:37:03.050Z,38.68
2023-04-14T22:40:19.128Z,38.11
2023-04-14T22:43:39.629Z,37.87
2023-04-14T22:46:39.301Z,37.99
2023-04-14T22:58:01.493Z,38.26
2023-04-14T23:01:22.487Z,37.97
2023-04-14T23:05:31.923Z,42.46
2023-04-14T23:12:57.346Z,37.97
2023-04-14T23:16:03.443Z,38.78
2023-04-14T23:19:32.616Z,38.50
2023-04-14T23:23:20.814Z,38.72
2023-04-14T23:26:39.515Z,41.51
2023-04-14T23:30:02.357Z,39.02
2023-04-14T23:33:33.624Z,40.00
2023-04-14T23:37:37.086Z,39.08
2023-04-14T23:48:13.044Z,38.94
2023-04-14T23:55:05.445Z,38.86
2023-04-14T23:58:08.001Z,38.89
